Cranendonck, Netherlands
Current Conditions -  °F | °C
As of 3:55 PM on Wednesday 26 Nov 2014 (Local Time) from EBBL Reporting Station
Haze Haze  
Wind Chill: 39°   Ceiling: 1800
Heat Index: 43°   Visibility: 2.1mi
Dew Point: 39°   Wind: 6mph
Humidity: 87%   Direction: 90°E
Pressure: 29.88"   Gusts: NA
Location:  51.3°N, 5.59°E
Report Text: EBBL 261455Z 09005KT 3500 BR OVC018 06/04 Q1012 YLO GRN TEMPO YLO
Loading
Personal Weather Stations






























Interactive Weather Map New forecast layout! Learn more

10-Day Weather Forecast

Advertisements
Track Severe Weather on mobile